sensor_id;sensor_type;location;lat;lon;timestamp;P1;durP1;ratioP1;P2;durP2;ratioP2
13891;SDS011;7016;48.172;8.058;2023-02-05T00:00:36;28.23;;;9.68;;
13891;SDS011;7016;48.172;8.058;2023-02-05T00:03:01;16.77;;;8.35;;
13891;SDS011;7016;48.172;8.058;2023-02-05T00:05:28;33.78;;;8.38;;
13891;SDS011;7016;48.172;8.058;2023-02-05T00:07:53;53.47;;;14.00;;
13891;SDS011;7016;48.172;8.058;2023-02-05T00:10:19;58.35;;;11.55;;
13891;SDS011;7016;48.172;8.058;2023-02-05T00:12:45;22.52;;;10.15;;
13891;SDS011;7016;48.172;8.058;2023-02-05T00:15:10;18.25;;;8.85;;
13891;SDS011;7016;48.172;8.058;2023-02-05T00:17:36;25.65;;;9.43;;
13891;SDS011;7016;48.172;8.058;2023-02-05T00:20:03;25.08;;;9.40;;
13891;SDS011;7016;48.172;8.058;2023-02-05T00:22:30;18.73;;;8.73;;
13891;SDS011;7016;48.172;8.058;2023-02-05T00:24:55;22.38;;;8.35;;
13891;SDS011;7016;48.172;8.058;2023-02-05T00:27:21;23.25;;;10.38;;
13891;SDS011;7016;48.172;8.058;2023-02-05T00:29:47;20.73;;;10.65;;
13891;SDS011;7016;48.172;8.058;2023-02-05T00:32:12;23.10;;;10.80;;
13891;SDS011;7016;48.172;8.058;2023-02-05T00:34:38;15.27;;;7.85;;
13891;SDS011;7016;48.172;8.058;2023-02-05T00:37:03;21.33;;;6.38;;
13891;SDS011;7016;48.172;8.058;2023-02-05T00:39:29;8.85;;;5.53;;
13891;SDS011;7016;48.172;8.058;2023-02-05T00:41:55;8.75;;;5.25;;
13891;SDS011;7016;48.172;8.058;2023-02-05T00:44:20;9.13;;;5.50;;
13891;SDS011;7016;48.172;8.058;2023-02-05T00:46:46;9.63;;;6.00;;
13891;SDS011;7016;48.172;8.058;2023-02-05T00:49:12;10.05;;;6.10;;
13891;SDS011;7016;48.172;8.058;2023-02-05T00:51:37;15.57;;;5.60;;
13891;SDS011;7016;48.172;8.058;2023-02-05T00:54:03;10.52;;;6.40;;
13891;SDS011;7016;48.172;8.058;2023-02-05T00:56:29;16.80;;;6.05;;
13891;SDS011;7016;48.172;8.058;2023-02-05T00:58:54;10.65;;;5.80;;
13891;SDS011;7016;48.172;8.058;2023-02-05T01:01:21;8.05;;;4.53;;
13891;SDS011;7016;48.172;8.058;2023-02-05T01:03:47;9.50;;;4.82;;
13891;SDS011;7016;48.172;8.058;2023-02-05T01:06:13;12.77;;;5.18;;
13891;SDS011;7016;48.172;8.058;2023-02-05T01:08:38;12.52;;;5.55;;
13891;SDS011;7016;48.172;8.058;2023-02-05T01:11:05;12.75;;;5.50;;
13891;SDS011;7016;48.172;8.058;2023-02-05T01:13:32;12.50;;;4.90;;
13891;SDS011;7016;48.172;8.058;2023-02-05T01:15:58;7.97;;;4.40;;
13891;SDS011;7016;48.172;8.058;2023-02-05T01:18:24;17.88;;;4.55;;
13891;SDS011;7016;48.172;8.058;2023-02-05T01:20:49;10.65;;;4.72;;
13891;SDS011;7016;48.172;8.058;2023-02-05T01:23:15;6.15;;;3.97;;
13891;SDS011;7016;48.172;8.058;2023-02-05T01:25:41;9.00;;;4.30;;
13891;SDS011;7016;48.172;8.058;2023-02-05T01:28:06;8.98;;;4.60;;
13891;SDS011;7016;48.172;8.058;2023-02-05T01:30:32;8.75;;;5.13;;
13891;SDS011;7016;48.172;8.058;2023-02-05T01:32:58;9.10;;;4.30;;
13891;SDS011;7016;48.172;8.058;2023-02-05T01:35:25;6.70;;;3.80;;
13891;SDS011;7016;48.172;8.058;2023-02-05T01:37:51;6.43;;;3.80;;
13891;SDS011;7016;48.172;8.058;2023-02-05T01:40:17;16.08;;;5.03;;
13891;SDS011;7016;48.172;8.058;2023-02-05T01:42:43;13.43;;;6.80;;
13891;SDS011;7016;48.172;8.058;2023-02-05T01:47:51;9.32;;;5.35;;
13891;SDS011;7016;48.172;8.058;2023-02-05T01:50:23;17.65;;;5.35;;
13891;SDS011;7016;48.172;8.058;2023-02-05T01:53:23;15.43;;;4.95;;
13891;SDS011;7016;48.172;8.058;2023-02-05T01:55:54;10.18;;;4.68;;
13891;SDS011;7016;48.172;8.058;2023-02-05T01:58:20;22.85;;;4.10;;
13891;SDS011;7016;48.172;8.058;2023-02-05T02:00:48;23.50;;;4.05;;
13891;SDS011;7016;48.172;8.058;2023-02-05T02:03:14;21.52;;;4.15;;
13891;SDS011;7016;48.172;8.058;2023-02-05T02:05:40;77.65;;;6.20;;
13891;SDS011;7016;48.172;8.058;2023-02-05T02:08:05;41.92;;;5.65;;
13891;SDS011;7016;48.172;8.058;2023-02-05T02:10:33;13.77;;;4.97;;
13891;SDS011;7016;48.172;8.058;2023-02-05T02:12:59;9.40;;;4.28;;
13891;SDS011;7016;48.172;8.058;2023-02-05T02:15:26;11.13;;;3.60;;
13891;SDS011;7016;48.172;8.058;2023-02-05T02:17:53;10.50;;;4.00;;
13891;SDS011;7016;48.172;8.058;2023-02-05T02:20:43;8.98;;;4.05;;
13891;SDS011;7016;48.172;8.058;2023-02-05T02:23:15;35.42;;;4.65;;
13891;SDS011;7016;48.172;8.058;2023-02-05T02:33:52;11.48;;;5.03;;
13891;SDS011;7016;48.172;8.058;2023-02-05T02:36:25;7.13;;;4.15;;
13891;SDS011;7016;48.172;8.058;2023-02-05T02:41:51;7.70;;;3.22;;
13891;SDS011;7016;48.172;8.058;2023-02-05T02:44:17;6.50;;;3.05;;
13891;SDS011;7016;48.172;8.058;2023-02-05T02:46:50;4.57;;;2.90;;
13891;SDS011;7016;48.172;8.058;2023-02-05T02:49:27;9.05;;;3.20;;
13891;SDS011;7016;48.172;8.058;2023-02-05T02:51:57;6.25;;;3.90;;
13891;SDS011;7016;48.172;8.058;2023-02-05T02:54:28;18.40;;;3.70;;
13891;SDS011;7016;48.172;8.058;2023-02-05T02:56:56;11.15;;;3.95;;
13891;SDS011;7016;48.172;8.058;2023-02-05T02:59:23;10.40;;;3.60;;
13891;SDS011;7016;48.172;8.058;2023-02-05T03:01:53;8.20;;;4.40;;
13891;SDS011;7016;48.172;8.058;2023-02-05T03:04:44;28.60;;;8.05;;
13891;SDS011;7016;48.172;8.058;2023-02-05T03:09:50;11.00;;;4.60;;
13891;SDS011;7016;48.172;8.058;2023-02-05T03:12:20;32.33;;;7.60;;
13891;SDS011;7016;48.172;8.058;2023-02-05T03:14:46;17.90;;;7.38;;
13891;SDS011;7016;48.172;8.058;2023-02-05T03:17:12;43.65;;;7.05;;
13891;SDS011;7016;48.172;8.058;2023-02-05T03:19:43;11.32;;;6.18;;
13891;SDS011;7016;48.172;8.058;2023-02-05T03:22:10;13.40;;;6.00;;
13891;SDS011;7016;48.172;8.058;2023-02-05T03:24:36;10.63;;;5.28;;
13891;SDS011;7016;48.172;8.058;2023-02-05T03:27:03;8.75;;;4.35;;
13891;SDS011;7016;48.172;8.058;2023-02-05T03:29:30;14.57;;;4.95;;
13891;SDS011;7016;48.172;8.058;2023-02-05T03:32:08;9.98;;;5.03;;
13891;SDS011;7016;48.172;8.058;2023-02-05T03:37:17;12.02;;;4.85;;
13891;SDS011;7016;48.172;8.058;2023-02-05T03:45:16;8.95;;;3.42;;
13891;SDS011;7016;48.172;8.058;2023-02-05T03:47:54;9.52;;;3.50;;
13891;SDS011;7016;48.172;8.058;2023-02-05T03:51:09;10.63;;;3.50;;
13891;SDS011;7016;48.172;8.058;2023-02-05T03:53:48;9.55;;;3.78;;
13891;SDS011;7016;48.172;8.058;2023-02-05T03:59:08;8.27;;;3.47;;
13891;SDS011;7016;48.172;8.058;2023-02-05T04:01:37;8.60;;;4.00;;
13891;SDS011;7016;48.172;8.058;2023-02-05T04:04:04;11.48;;;4.32;;
13891;SDS011;7016;48.172;8.058;2023-02-05T04:06:29;13.00;;;4.30;;
13891;SDS011;7016;48.172;8.058;2023-02-05T04:08:55;14.07;;;4.45;;
13891;SDS011;7016;48.172;8.058;2023-02-05T04:11:21;13.82;;;4.30;;
13891;SDS011;7016;48.172;8.058;2023-02-05T04:13:46;11.90;;;4.10;;
13891;SDS011;7016;48.172;8.058;2023-02-05T04:16:12;8.35;;;3.85;;
13891;SDS011;7016;48.172;8.058;2023-02-05T04:18:38;9.35;;;4.03;;
13891;SDS011;7016;48.172;8.058;2023-02-05T04:21:03;13.65;;;5.38;;
13891;SDS011;7016;48.172;8.058;2023-02-05T04:23:30;18.92;;;6.32;;
13891;SDS011;7016;48.172;8.058;2023-02-05T04:25:56;14.80;;;5.63;;
13891;SDS011;7016;48.172;8.058;2023-02-05T04:28:22;15.05;;;4.88;;
13891;SDS011;7016;48.172;8.058;2023-02-05T04:30:47;15.85;;;4.75;;
13891;SDS011;7016;48.172;8.058;2023-02-05T04:33:13;10.15;;;4.40;;
13891;SDS011;7016;48.172;8.058;2023-02-05T04:35:39;10.38;;;4.32;;
13891;SDS011;7016;48.172;8.058;2023-02-05T04:38:04;11.50;;;4.30;;
13891;SDS011;7016;48.172;8.058;2023-02-05T04:40:31;15.55;;;4.50;;
13891;SDS011;7016;48.172;8.058;2023-02-05T04:42:56;11.70;;;4.47;;
13891;SDS011;7016;48.172;8.058;2023-02-05T04:45:22;13.25;;;5.22;;
13891;SDS011;7016;48.172;8.058;2023-02-05T04:47:50;14.10;;;5.43;;
13891;SDS011;7016;48.172;8.058;2023-02-05T04:50:16;10.57;;;4.80;;
13891;SDS011;7016;48.172;8.058;2023-02-05T04:52:42;14.55;;;5.05;;
13891;SDS011;7016;48.172;8.058;2023-02-05T04:55:08;12.85;;;4.78;;
13891;SDS011;7016;48.172;8.058;2023-02-05T04:57:33;11.88;;;5.07;;
13891;SDS011;7016;48.172;8.058;2023-02-05T04:59:59;9.35;;;4.68;;
13891;SDS011;7016;48.172;8.058;2023-02-05T05:02:25;16.55;;;4.70;;
13891;SDS011;7016;48.172;8.058;2023-02-05T05:04:50;14.73;;;4.72;;
13891;SDS011;7016;48.172;8.058;2023-02-05T05:07:16;11.70;;;4.68;;
13891;SDS011;7016;48.172;8.058;2023-02-05T05:09:42;14.57;;;6.25;;
13891;SDS011;7016;48.172;8.058;2023-02-05T05:12:08;17.77;;;6.20;;
13891;SDS011;7016;48.172;8.058;2023-02-05T05:14:33;16.48;;;6.88;;
13891;SDS011;7016;48.172;8.058;2023-02-05T05:16:59;18.63;;;6.32;;
13891;SDS011;7016;48.172;8.058;2023-02-05T05:19:25;18.55;;;5.78;;
13891;SDS011;7016;48.172;8.058;2023-02-05T05:21:50;7.45;;;3.65;;
13891;SDS011;7016;48.172;8.058;2023-02-05T05:24:16;14.85;;;4.82;;
13891;SDS011;7016;48.172;8.058;2023-02-05T05:26:42;13.02;;;4.50;;
13891;SDS011;7016;48.172;8.058;2023-02-05T05:29:12;12.70;;;3.83;;
13891;SDS011;7016;48.172;8.058;2023-02-05T05:31:39;14.15;;;4.75;;
13891;SDS011;7016;48.172;8.058;2023-02-05T05:34:05;9.50;;;4.10;;
13891;SDS011;7016;48.172;8.058;2023-02-05T05:36:31;12.43;;;4.53;;
13891;SDS011;7016;48.172;8.058;2023-02-05T05:38:56;8.40;;;4.35;;
13891;SDS011;7016;48.172;8.058;2023-02-05T05:41:42;17.20;;;6.70;;
13891;SDS011;7016;48.172;8.058;2023-02-05T05:44:27;14.07;;;6.13;;
13891;SDS011;7016;48.172;8.058;2023-02-05T05:46:52;12.40;;;5.30;;
13891;SDS011;7016;48.172;8.058;2023-02-05T05:49:18;9.85;;;4.75;;
13891;SDS011;7016;48.172;8.058;2023-02-05T05:51:44;11.32;;;4.97;;
13891;SDS011;7016;48.172;8.058;2023-02-05T05:54:09;11.48;;;4.60;;
13891;SDS011;7016;48.172;8.058;2023-02-05T05:56:35;6.72;;;3.60;;
13891;SDS011;7016;48.172;8.058;2023-02-05T05:59:02;10.45;;;4.03;;
13891;SDS011;7016;48.172;8.058;2023-02-05T06:01:28;13.45;;;4.40;;
13891;SDS011;7016;48.172;8.058;2023-02-05T06:03:53;15.30;;;5.00;;
13891;SDS011;7016;48.172;8.058;2023-02-05T06:06:19;8.45;;;4.07;;
13891;SDS011;7016;48.172;8.058;2023-02-05T06:08:45;10.85;;;4.70;;
13891;SDS011;7016;48.172;8.058;2023-02-05T06:11:11;42.00;;;19.50;;
13891;SDS011;7016;48.172;8.058;2023-02-05T06:13:37;72.82;;;33.97;;
13891;SDS011;7016;48.172;8.058;2023-02-05T06:16:03;33.13;;;12.52;;
13891;SDS011;7016;48.172;8.058;2023-02-05T06:18:29;22.30;;;10.38;;
13891;SDS011;7016;48.172;8.058;2023-02-05T06:20:54;18.63;;;8.98;;
13891;SDS011;7016;48.172;8.058;2023-02-05T06:23:20;25.60;;;9.50;;
13891;SDS011;7016;48.172;8.058;2023-02-05T06:25:46;20.65;;;8.70;;
13891;SDS011;7016;48.172;8.058;2023-02-05T06:28:12;16.10;;;6.20;;
13891;SDS011;7016;48.172;8.058;2023-02-05T06:30:37;11.93;;;5.38;;
13891;SDS011;7016;48.172;8.058;2023-02-05T06:33:03;13.00;;;5.40;;
13891;SDS011;7016;48.172;8.058;2023-02-05T06:35:29;11.50;;;5.00;;
13891;SDS011;7016;48.172;8.058;2023-02-05T06:37:55;16.30;;;5.47;;
13891;SDS011;7016;48.172;8.058;2023-02-05T06:40:21;13.77;;;5.80;;
13891;SDS011;7016;48.172;8.058;2023-02-05T06:42:50;12.48;;;5.07;;
13891;SDS011;7016;48.172;8.058;2023-02-05T06:45:17;13.38;;;4.85;;
13891;SDS011;7016;48.172;8.058;2023-02-05T06:47:43;16.88;;;6.68;;
13891;SDS011;7016;48.172;8.058;2023-02-05T06:50:09;19.52;;;6.05;;
13891;SDS011;7016;48.172;8.058;2023-02-05T06:52:34;15.48;;;5.72;;
13891;SDS011;7016;48.172;8.058;2023-02-05T06:55:00;13.48;;;6.13;;
13891;SDS011;7016;48.172;8.058;2023-02-05T06:57:26;17.90;;;9.95;;
13891;SDS011;7016;48.172;8.058;2023-02-05T06:59:52;18.70;;;8.18;;
13891;SDS011;7016;48.172;8.058;2023-02-05T07:02:17;16.35;;;7.72;;
13891;SDS011;7016;48.172;8.058;2023-02-05T07:04:43;32.85;;;14.88;;
13891;SDS011;7016;48.172;8.058;2023-02-05T07:07:09;32.75;;;14.75;;
13891;SDS011;7016;48.172;8.058;2023-02-05T07:09:34;30.67;;;13.98;;
13891;SDS011;7016;48.172;8.058;2023-02-05T07:12:00;28.05;;;14.13;;
13891;SDS011;7016;48.172;8.058;2023-02-05T07:14:26;26.92;;;13.23;;
13891;SDS011;7016;48.172;8.058;2023-02-05T07:16:52;21.77;;;11.35;;
13891;SDS011;7016;48.172;8.058;2023-02-05T07:19:17;17.95;;;7.85;;
13891;SDS011;7016;48.172;8.058;2023-02-05T07:21:43;11.98;;;4.68;;
13891;SDS011;7016;48.172;8.058;2023-02-05T07:24:09;12.48;;;4.78;;
13891;SDS011;7016;48.172;8.058;2023-02-05T07:26:34;13.75;;;4.95;;
13891;SDS011;7016;48.172;8.058;2023-02-05T07:29:01;12.43;;;4.90;;
13891;SDS011;7016;48.172;8.058;2023-02-05T07:31:27;10.98;;;4.65;;
13891;SDS011;7016;48.172;8.058;2023-02-05T07:33:52;9.30;;;4.03;;
13891;SDS011;7016;48.172;8.058;2023-02-05T07:36:18;9.15;;;4.10;;
13891;SDS011;7016;48.172;8.058;2023-02-05T07:38:44;16.08;;;5.70;;
13891;SDS011;7016;48.172;8.058;2023-02-05T07:41:12;15.07;;;5.57;;
13891;SDS011;7016;48.172;8.058;2023-02-05T07:43:40;14.10;;;5.43;;
13891;SDS011;7016;48.172;8.058;2023-02-05T07:46:07;14.57;;;6.18;;
13891;SDS011;7016;48.172;8.058;2023-02-05T07:48:35;22.58;;;6.93;;
13891;SDS011;7016;48.172;8.058;2023-02-05T07:51:01;18.48;;;5.70;;
13891;SDS011;7016;48.172;8.058;2023-02-05T07:53:27;12.40;;;5.25;;
13891;SDS011;7016;48.172;8.058;2023-02-05T07:55:53;14.05;;;5.40;;
13891;SDS011;7016;48.172;8.058;2023-02-05T07:58:18;10.95;;;5.10;;
13891;SDS011;7016;48.172;8.058;2023-02-05T08:00:44;13.77;;;6.38;;
13891;SDS011;7016;48.172;8.058;2023-02-05T08:03:10;16.55;;;6.35;;
13891;SDS011;7016;48.172;8.058;2023-02-05T08:05:36;16.40;;;6.35;;
13891;SDS011;7016;48.172;8.058;2023-02-05T08:08:03;16.25;;;6.82;;
13891;SDS011;7016;48.172;8.058;2023-02-05T08:10:29;13.52;;;4.95;;
13891;SDS011;7016;48.172;8.058;2023-02-05T08:12:55;13.15;;;5.70;;
13891;SDS011;7016;48.172;8.058;2023-02-05T08:15:21;15.07;;;6.68;;
13891;SDS011;7016;48.172;8.058;2023-02-05T08:17:46;11.18;;;5.70;;
13891;SDS011;7016;48.172;8.058;2023-02-05T08:20:12;17.27;;;7.97;;
13891;SDS011;7016;48.172;8.058;2023-02-05T08:22:39;29.92;;;14.13;;
13891;SDS011;7016;48.172;8.058;2023-02-05T08:25:06;36.20;;;20.85;;
13891;SDS011;7016;48.172;8.058;2023-02-05T08:27:34;39.15;;;18.73;;
13891;SDS011;7016;48.172;8.058;2023-02-05T08:30:02;33.83;;;15.55;;
13891;SDS011;7016;48.172;8.058;2023-02-05T08:32:29;28.63;;;13.27;;
13891;SDS011;7016;48.172;8.058;2023-02-05T08:34:55;18.65;;;9.43;;
13891;SDS011;7016;48.172;8.058;2023-02-05T08:37:20;23.95;;;10.85;;
13891;SDS011;7016;48.172;8.058;2023-02-05T08:39:46;22.10;;;10.00;;
13891;SDS011;7016;48.172;8.058;2023-02-05T08:42:13;21.45;;;9.57;;
13891;SDS011;7016;48.172;8.058;2023-02-05T08:44:39;21.00;;;9.88;;
13891;SDS011;7016;48.172;8.058;2023-02-05T08:47:04;20.30;;;9.20;;
13891;SDS011;7016;48.172;8.058;2023-02-05T08:49:30;20.13;;;9.77;;
13891;SDS011;7016;48.172;8.058;2023-02-05T08:51:56;16.77;;;8.48;;
13891;SDS011;7016;48.172;8.058;2023-02-05T08:54:22;17.85;;;6.95;;
13891;SDS011;7016;48.172;8.058;2023-02-05T08:56:49;14.77;;;6.38;;
13891;SDS011;7016;48.172;8.058;2023-02-05T08:59:16;17.42;;;7.70;;
13891;SDS011;7016;48.172;8.058;2023-02-05T09:01:42;17.15;;;7.55;;
13891;SDS011;7016;48.172;8.058;2023-02-05T09:04:12;19.70;;;8.27;;
13891;SDS011;7016;48.172;8.058;2023-02-05T09:06:39;17.95;;;8.55;;
13891;SDS011;7016;48.172;8.058;2023-02-05T09:09:05;14.38;;;7.78;;
13891;SDS011;7016;48.172;8.058;2023-02-05T09:11:31;18.02;;;9.63;;
13891;SDS011;7016;48.172;8.058;2023-02-05T09:13:57;19.92;;;9.32;;
13891;SDS011;7016;48.172;8.058;2023-02-05T09:16:23;14.90;;;8.18;;
13891;SDS011;7016;48.172;8.058;2023-02-05T09:18:50;19.10;;;10.07;;
13891;SDS011;7016;48.172;8.058;2023-02-05T09:21:17;18.10;;;9.07;;
13891;SDS011;7016;48.172;8.058;2023-02-05T09:23:43;19.55;;;8.75;;
13891;SDS011;7016;48.172;8.058;2023-02-05T09:26:08;17.13;;;8.98;;
13891;SDS011;7016;48.172;8.058;2023-02-05T09:28:34;17.85;;;8.40;;
13891;SDS011;7016;48.172;8.058;2023-02-05T09:31:34;16.42;;;8.15;;
13891;SDS011;7016;48.172;8.058;2023-02-05T09:33:52;21.85;;;9.65;;
13891;SDS011;7016;48.172;8.058;2023-02-05T09:36:20;22.30;;;7.47;;
13891;SDS011;7016;48.172;8.058;2023-02-05T09:38:47;15.90;;;7.38;;
13891;SDS011;7016;48.172;8.058;2023-02-05T09:43:44;20.88;;;9.10;;
13891;SDS011;7016;48.172;8.058;2023-02-05T10:44:49;19.98;;;7.97;;
13891;SDS011;7016;48.172;8.058;2023-02-05T10:47:30;25.85;;;7.55;;
13891;SDS011;7016;48.172;8.058;2023-02-05T10:50:14;27.35;;;7.72;;
13891;SDS011;7016;48.172;8.058;2023-02-05T10:52:40;19.08;;;7.55;;
13891;SDS011;7016;48.172;8.058;2023-02-05T10:55:09;19.70;;;7.38;;
13891;SDS011;7016;48.172;8.058;2023-02-05T10:57:37;26.92;;;8.13;;
13891;SDS011;7016;48.172;8.058;2023-02-05T11:00:12;19.23;;;7.40;;
13891;SDS011;7016;48.172;8.058;2023-02-05T11:02:41;20.65;;;8.07;;
13891;SDS011;7016;48.172;8.058;2023-02-05T11:05:14;22.15;;;9.70;;
13891;SDS011;7016;48.172;8.058;2023-02-05T11:07:47;24.15;;;9.82;;
13891;SDS011;7016;48.172;8.058;2023-02-05T11:10:33;23.55;;;10.10;;
13891;SDS011;7016;48.172;8.058;2023-02-05T11:13:01;24.58;;;10.43;;
13891;SDS011;7016;48.172;8.058;2023-02-05T11:16:16;23.25;;;10.05;;
13891;SDS011;7016;48.172;8.058;2023-02-05T11:18:37;23.20;;;10.20;;
13891;SDS011;7016;48.172;8.058;2023-02-05T11:21:05;30.55;;;10.38;;
13891;SDS011;7016;48.172;8.058;2023-02-05T11:23:33;28.13;;;11.55;;
13891;SDS011;7016;48.172;8.058;2023-02-05T11:26:16;24.70;;;11.63;;
13891;SDS011;7016;48.172;8.058;2023-02-05T11:28:44;24.77;;;10.52;;
13891;SDS011;7016;48.172;8.058;2023-02-05T11:34:09;26.52;;;10.65;;
13891;SDS011;7016;48.172;8.058;2023-02-05T11:36:39;29.67;;;11.47;;
13891;SDS011;7016;48.172;8.058;2023-02-05T11:39:30;28.50;;;10.90;;
13891;SDS011;7016;48.172;8.058;2023-02-05T11:42:16;24.15;;;10.98;;
13891;SDS011;7016;48.172;8.058;2023-02-05T11:44:54;26.35;;;11.45;;
13891;SDS011;7016;48.172;8.058;2023-02-05T11:47:26;29.75;;;11.05;;
13891;SDS011;7016;48.172;8.058;2023-02-05T11:49:55;23.63;;;10.88;;
13891;SDS011;7016;48.172;8.058;2023-02-05T11:52:39;25.30;;;10.27;;
13891;SDS011;7016;48.172;8.058;2023-02-05T11:55:05;20.85;;;10.13;;
13891;SDS011;7016;48.172;8.058;2023-02-05T11:57:33;21.73;;;10.35;;
13891;SDS011;7016;48.172;8.058;2023-02-05T12:00:17;25.75;;;8.93;;
13891;SDS011;7016;48.172;8.058;2023-02-05T12:02:45;26.40;;;11.07;;
13891;SDS011;7016;48.172;8.058;2023-02-05T12:05:18;24.65;;;9.57;;
13891;SDS011;7016;48.172;8.058;2023-02-05T12:07:54;22.77;;;9.90;;
13891;SDS011;7016;48.172;8.058;2023-02-05T12:13:26;25.83;;;10.30;;
13891;SDS011;7016;48.172;8.058;2023-02-05T12:16:21;22.58;;;9.48;;
13891;SDS011;7016;48.172;8.058;2023-02-05T12:19:04;20.45;;;9.05;;
13891;SDS011;7016;48.172;8.058;2023-02-05T12:21:47;23.63;;;9.95;;
13891;SDS011;7016;48.172;8.058;2023-02-05T12:26:56;21.48;;;10.50;;
13891;SDS011;7016;48.172;8.058;2023-02-05T12:30:24;23.10;;;9.75;;
13891;SDS011;7016;48.172;8.058;2023-02-05T12:35:42;29.98;;;11.25;;
13891;SDS011;7016;48.172;8.058;2023-02-05T12:38:36;28.00;;;12.40;;
13891;SDS011;7016;48.172;8.058;2023-02-05T12:41:31;23.90;;;9.57;;
13891;SDS011;7016;48.172;8.058;2023-02-05T12:44:07;24.35;;;9.30;;
13891;SDS011;7016;48.172;8.058;2023-02-05T12:49:42;19.90;;;8.48;;
13891;SDS011;7016;48.172;8.058;2023-02-05T12:58:12;26.35;;;11.18;;
13891;SDS011;7016;48.172;8.058;2023-02-05T13:06:07;24.48;;;10.98;;
13891;SDS011;7016;48.172;8.058;2023-02-05T13:08:44;33.17;;;13.40;;
13891;SDS011;7016;48.172;8.058;2023-02-05T13:11:19;26.42;;;12.95;;
13891;SDS011;7016;48.172;8.058;2023-02-05T13:14:16;30.30;;;12.48;;
13891;SDS011;7016;48.172;8.058;2023-02-05T13:16:53;29.52;;;12.25;;
13891;SDS011;7016;48.172;8.058;2023-02-05T13:19:30;29.77;;;12.95;;
13891;SDS011;7016;48.172;8.058;2023-02-05T13:22:03;25.70;;;13.40;;
13891;SDS011;7016;48.172;8.058;2023-02-05T13:24:55;24.80;;;12.52;;
13891;SDS011;7016;48.172;8.058;2023-02-05T13:27:45;25.55;;;13.02;;
13891;SDS011;7016;48.172;8.058;2023-02-05T13:30:38;25.08;;;12.77;;
13891;SDS011;7016;48.172;8.058;2023-02-05T13:33:07;23.70;;;12.83;;
13891;SDS011;7016;48.172;8.058;2023-02-05T13:47:10;24.27;;;12.50;;
13891;SDS011;7016;48.172;8.058;2023-02-05T14:00:45;22.70;;;12.85;;
13891;SDS011;7016;48.172;8.058;2023-02-05T14:03:21;28.88;;;14.23;;
13891;SDS011;7016;48.172;8.058;2023-02-05T14:06:21;28.48;;;13.82;;
13891;SDS011;7016;48.172;8.058;2023-02-05T14:08:50;29.83;;;15.85;;
13891;SDS011;7016;48.172;8.058;2023-02-05T14:11:41;28.90;;;14.90;;
13891;SDS011;7016;48.172;8.058;2023-02-05T14:16:41;33.00;;;17.55;;
13891;SDS011;7016;48.172;8.058;2023-02-05T14:27:18;24.15;;;14.45;;
13891;SDS011;7016;48.172;8.058;2023-02-05T14:30:30;22.58;;;11.00;;
13891;SDS011;7016;48.172;8.058;2023-02-05T14:32:55;25.48;;;14.18;;
13891;SDS011;7016;48.172;8.058;2023-02-05T14:35:37;27.58;;;14.73;;
13891;SDS011;7016;48.172;8.058;2023-02-05T14:43:37;18.90;;;12.40;;
13891;SDS011;7016;48.172;8.058;2023-02-05T14:46:05;23.00;;;12.13;;
13891;SDS011;7016;48.172;8.058;2023-02-05T14:48:47;30.17;;;16.65;;
13891;SDS011;7016;48.172;8.058;2023-02-05T14:54:18;28.30;;;14.38;;
13891;SDS011;7016;48.172;8.058;2023-02-05T14:56:51;25.55;;;13.43;;
13891;SDS011;7016;48.172;8.058;2023-02-05T14:59:37;24.15;;;11.93;;
13891;SDS011;7016;48.172;8.058;2023-02-05T15:05:18;15.45;;;8.38;;
13891;SDS011;7016;48.172;8.058;2023-02-05T15:13:29;15.10;;;7.65;;
13891;SDS011;7016;48.172;8.058;2023-02-05T15:18:42;16.27;;;8.30;;
13891;SDS011;7016;48.172;8.058;2023-02-05T15:24:12;13.35;;;6.75;;
13891;SDS011;7016;48.172;8.058;2023-02-05T15:26:46;8.80;;;5.27;;
13891;SDS011;7016;48.172;8.058;2023-02-05T15:29:35;8.80;;;5.40;;
13891;SDS011;7016;48.172;8.058;2023-02-05T15:32:14;8.05;;;5.20;;
13891;SDS011;7016;48.172;8.058;2023-02-05T15:34:43;9.48;;;6.15;;
13891;SDS011;7016;48.172;8.058;2023-02-05T15:39:58;11.40;;;5.80;;
13891;SDS011;7016;48.172;8.058;2023-02-05T15:42:35;8.82;;;5.05;;
13891;SDS011;7016;48.172;8.058;2023-02-05T15:48:04;9.55;;;5.93;;
13891;SDS011;7016;48.172;8.058;2023-02-05T15:50:34;13.32;;;5.90;;
13891;SDS011;7016;48.172;8.058;2023-02-05T15:55:53;7.15;;;4.78;;
13891;SDS011;7016;48.172;8.058;2023-02-05T15:58:21;7.32;;;5.03;;
13891;SDS011;7016;48.172;8.058;2023-02-05T16:00:49;7.43;;;4.88;;
13891;SDS011;7016;48.172;8.058;2023-02-05T16:03:29;6.43;;;4.68;;
13891;SDS011;7016;48.172;8.058;2023-02-05T16:05:57;7.47;;;4.80;;
13891;SDS011;7016;48.172;8.058;2023-02-05T16:08:23;7.10;;;4.60;;
13891;SDS011;7016;48.172;8.058;2023-02-05T16:10:53;8.13;;;4.40;;
13891;SDS011;7016;48.172;8.058;2023-02-05T16:13:22;6.38;;;4.30;;
13891;SDS011;7016;48.172;8.058;2023-02-05T16:18:29;7.78;;;4.55;;
13891;SDS011;7016;48.172;8.058;2023-02-05T16:21:17;7.63;;;4.72;;
13891;SDS011;7016;48.172;8.058;2023-02-05T16:23:50;11.95;;;4.93;;
13891;SDS011;7016;48.172;8.058;2023-02-05T16:26:28;6.38;;;4.18;;
13891;SDS011;7016;48.172;8.058;2023-02-05T16:29:04;7.10;;;4.20;;
13891;SDS011;7016;48.172;8.058;2023-02-05T16:31:31;6.38;;;4.22;;
13891;SDS011;7016;48.172;8.058;2023-02-05T16:34:15;5.05;;;3.70;;
13891;SDS011;7016;48.172;8.058;2023-02-05T16:36:43;5.68;;;4.00;;
13891;SDS011;7016;48.172;8.058;2023-02-05T16:39:32;9.45;;;4.75;;
13891;SDS011;7016;48.172;8.058;2023-02-05T16:42:07;7.38;;;3.55;;
13891;SDS011;7016;48.172;8.058;2023-02-05T16:47:32;7.65;;;4.40;;
13891;SDS011;7016;48.172;8.058;2023-02-05T16:49:58;7.35;;;4.38;;
13891;SDS011;7016;48.172;8.058;2023-02-05T16:54:52;12.40;;;6.40;;
13891;SDS011;7016;48.172;8.058;2023-02-05T16:57:22;8.80;;;5.53;;
13891;SDS011;7016;48.172;8.058;2023-02-05T16:59:52;12.05;;;6.35;;
13891;SDS011;7016;48.172;8.058;2023-02-05T17:04:59;13.55;;;6.88;;
13891;SDS011;7016;48.172;8.058;2023-02-05T17:07:27;13.93;;;7.07;;
13891;SDS011;7016;48.172;8.058;2023-02-05T17:09:59;12.93;;;7.65;;
13891;SDS011;7016;48.172;8.058;2023-02-05T17:12:37;15.55;;;9.30;;
13891;SDS011;7016;48.172;8.058;2023-02-05T17:17:49;12.68;;;7.80;;
13891;SDS011;7016;48.172;8.058;2023-02-05T17:20:20;11.15;;;6.70;;
13891;SDS011;7016;48.172;8.058;2023-02-05T17:28:16;16.98;;;10.30;;
13891;SDS011;7016;48.172;8.058;2023-02-05T17:30:45;19.38;;;11.27;;
13891;SDS011;7016;48.172;8.058;2023-02-05T17:33:17;18.35;;;10.70;;
13891;SDS011;7016;48.172;8.058;2023-02-05T17:35:44;17.33;;;10.90;;
13891;SDS011;7016;48.172;8.058;2023-02-05T17:38:10;25.73;;;16.42;;
13891;SDS011;7016;48.172;8.058;2023-02-05T17:40:36;23.05;;;12.93;;
13891;SDS011;7016;48.172;8.058;2023-02-05T17:43:02;18.48;;;11.70;;
13891;SDS011;7016;48.172;8.058;2023-02-05T17:45:31;18.45;;;12.00;;
13891;SDS011;7016;48.172;8.058;2023-02-05T17:47:58;18.05;;;12.07;;
13891;SDS011;7016;48.172;8.058;2023-02-05T17:50:24;18.63;;;12.07;;
13891;SDS011;7016;48.172;8.058;2023-02-05T17:52:50;16.00;;;10.65;;
13891;SDS011;7016;48.172;8.058;2023-02-05T17:55:17;16.02;;;10.43;;
13891;SDS011;7016;48.172;8.058;2023-02-05T17:57:44;14.80;;;9.85;;
13891;SDS011;7016;48.172;8.058;2023-02-05T18:00:11;17.90;;;11.07;;
13891;SDS011;7016;48.172;8.058;2023-02-05T18:02:41;29.88;;;18.77;;
13891;SDS011;7016;48.172;8.058;2023-02-05T18:05:07;27.85;;;16.58;;
13891;SDS011;7016;48.172;8.058;2023-02-05T18:07:36;21.42;;;13.85;;
13891;SDS011;7016;48.172;8.058;2023-02-05T18:10:05;22.23;;;14.02;;
13891;SDS011;7016;48.172;8.058;2023-02-05T18:12:32;14.98;;;9.20;;
13891;SDS011;7016;48.172;8.058;2023-02-05T18:14:58;13.90;;;9.65;;
13891;SDS011;7016;48.172;8.058;2023-02-05T18:17:23;12.75;;;8.20;;
13891;SDS011;7016;48.172;8.058;2023-02-05T18:19:49;16.38;;;11.07;;